Time;durP1;ratioP1;P1;durP2;ratioP2;P2;SDS_P1;SDS_P2;PMS_P1;PMS_P2;Temp;Humidity;BMP_temperature;BMP_pressure;BME280_temperature;BME280_humidity;BME280_pressure;Samples;Min_cycle;Max_cycle;Signal;HPM_P1;HPM_P2
2023/04/21 00:02:02;;;;;;;11.80;8.90;;;11.40;66.80;;;;;;6260629;28;20665;-88
2023/04/21 00:05:09;;;;;;;14.97;9.47;;;11.40;67.00;;;;;;6265494;28;20242;-88
2023/04/21 00:08:13;;;;;;;9.20;8.30;;;11.40;67.00;;;;;;6260344;28;20234;-85
2023/04/21 00:11:16;;;;;;;12.93;9.00;;;11.40;66.90;;;;;;6257691;28;20229;-87
2023/04/21 00:14:19;;;;;;;13.93;9.20;;;11.30;67.10;;;;;;6278372;28;20233;-86
2023/04/21 00:17:22;;;;;;;12.60;8.60;;;11.20;67.10;;;;;;6266421;28;20246;-87
2023/04/21 00:20:27;;;;;;;10.87;8.80;;;11.10;67.30;;;;;;6255660;28;20966;-86
2023/04/21 00:23:30;;;;;;;10.33;8.77;;;11.10;67.50;;;;;;6266741;28;20230;-86
2023/04/21 00:26:33;;;;;;;9.43;8.73;;;11.10;67.70;;;;;;6258253;28;20268;-84
2023/04/21 00:29:37;;;;;;;9.73;8.70;;;11.00;67.80;;;;;;6256682;28;21706;-87
2023/04/21 00:32:40;;;;;;;15.27;8.67;;;10.90;67.80;;;;;;6249378;28;20632;-85
2023/04/21 00:35:45;;;;;;;10.83;8.87;;;10.90;68.00;;;;;;6237656;28;20231;-85
2023/04/21 00:38:48;;;;;;;14.10;9.30;;;10.80;68.20;;;;;;6262847;28;20313;-83
2023/04/21 00:41:54;;;;;;;11.13;10.00;;;10.70;68.40;;;;;;6259016;28;20248;-86
2023/04/21 00:44:57;;;;;;;15.27;10.63;;;10.70;68.40;;;;;;6237862;28;20253;-87
2023/04/21 00:48:00;;;;;;;17.63;10.30;;;10.60;68.40;;;;;;6241595;28;20238;-88
2023/04/21 00:51:05;;;;;;;11.40;9.90;;;10.80;67.70;;;;;;6258046;28;20252;-87
2023/04/21 00:54:10;;;;;;;11.77;10.47;;;10.70;67.60;;;;;;6241579;28;20828;-87
2023/04/21 00:57:14;;;;;;;15.53;10.97;;;10.70;67.70;;;;;;6264314;28;21702;-88
2023/04/21 01:00:17;;;;;;;14.63;11.00;;;10.70;67.70;;;;;;6261255;28;20825;-86
2023/04/21 01:03:20;;;;;;;12.50;9.80;;;10.70;67.40;;;;;;6256368;28;20233;-88
2023/04/21 01:06:25;;;;;;;13.87;10.60;;;10.70;67.30;;;;;;6256036;28;20257;-84
2023/04/21 01:09:29;;;;;;;12.80;10.60;;;10.70;67.20;;;;;;6256350;28;20230;-88
2023/04/21 01:12:32;;;;;;;11.40;10.40;;;10.60;67.30;;;;;;6253372;28;20243;-87
2023/04/21 01:15:35;;;;;;;15.10;11.33;;;10.50;67.30;;;;;;6264765;28;20244;-87
2023/04/21 01:18:38;;;;;;;11.90;10.70;;;10.50;67.10;;;;;;6261422;28;20245;-89
2023/04/21 01:21:43;;;;;;;13.43;11.13;;;10.50;66.90;;;;;;6258370;28;20237;-88
2023/04/21 01:24:48;;;;;;;13.30;10.73;;;10.60;66.40;;;;;;6250929;28;20234;-87
2023/04/21 01:27:51;;;;;;;13.17;11.20;;;10.60;66.40;;;;;;6262956;28;20317;-87
2023/04/21 01:30:55;;;;;;;13.13;10.87;;;10.50;66.40;;;;;;6247862;28;20306;-86
2023/04/21 01:34:03;;;;;;;16.17;11.53;;;10.40;66.50;;;;;;6249018;28;20238;-87
2023/04/21 01:37:10;;;;;;;16.40;10.60;;;10.40;66.40;;;;;;6238226;28;20236;-85
2023/04/21 01:40:13;;;;;;;14.47;11.07;;;10.50;66.10;;;;;;6235016;28;20764;-86
2023/04/21 01:43:20;;;;;;;12.83;11.17;;;10.50;66.00;;;;;;6227006;28;20394;-89
2023/04/21 01:46:24;;;;;;;13.47;12.17;;;10.40;66.00;;;;;;6237717;28;20246;-89
2023/04/21 01:49:27;;;;;;;12.37;11.20;;;10.40;66.00;;;;;;6237397;28;20246;-88
2023/04/21 01:52:31;;;;;;;15.93;11.47;;;10.40;65.80;;;;;;6258293;28;20769;-83
2023/04/21 01:55:34;;;;;;;16.97;11.60;;;10.40;65.70;;;;;;6231978;28;20254;-85
2023/04/21 01:58:38;;;;;;;13.47;12.03;;;10.40;65.60;;;;;;6265729;28;20222;-84
2023/04/21 02:01:41;;;;;;;13.90;12.00;;;10.40;65.30;;;;;;6279186;28;20278;-83
2023/04/21 02:04:45;;;;;;;16.53;11.83;;;10.40;65.40;;;;;;6267168;28;20249;-87
2023/04/21 02:07:49;;;;;;;13.03;11.73;;;10.30;65.60;;;;;;6263473;28;20256;-85
2023/04/21 02:10:52;;;;;;;13.00;11.73;;;10.30;65.40;;;;;;6266905;28;20844;-87
2023/04/21 02:13:56;;;;;;;15.80;11.60;;;10.30;65.40;;;;;;6262604;28;20240;-86
2023/04/21 02:17:02;;;;;;;13.40;12.00;;;10.30;65.30;;;;;;6245302;28;20324;-88
2023/04/21 02:20:07;;;;;;;14.03;12.07;;;10.30;65.40;;;;;;6241560;28;20249;-86
2023/04/21 02:23:11;;;;;;;13.47;11.97;;;10.20;65.40;;;;;;6262993;28;20240;-86
2023/04/21 02:26:14;;;;;;;14.43;12.97;;;10.20;65.40;;;;;;6260197;28;20241;-86
2023/04/21 02:29:17;;;;;;;14.53;12.17;;;10.20;65.10;;;;;;6246805;28;20238;-84
2023/04/21 02:32:21;;;;;;;13.50;12.10;;;10.20;65.10;;;;;;6246925;28;20314;-88
2023/04/21 02:35:28;;;;;;;15.83;12.57;;;10.10;65.20;;;;;;6251858;28;20229;-86
2023/04/21 02:38:32;;;;;;;14.03;12.70;;;10.10;65.00;;;;;;6257704;28;20311;-87
2023/04/21 02:41:35;;;;;;;14.33;12.83;;;10.10;65.10;;;;;;6241174;28;20392;-87
2023/04/21 02:44:38;;;;;;;17.33;12.73;;;10.10;65.00;;;;;;6252538;28;20233;-86
2023/04/21 02:47:42;;;;;;;14.03;12.57;;;10.10;65.00;;;;;;6251985;28;20242;-87
2023/04/21 02:50:45;;;;;;;17.83;12.30;;;10.10;65.00;;;;;;6254140;28;20368;-86
2023/04/21 02:53:49;;;;;;;18.60;12.17;;;10.00;65.00;;;;;;6263171;28;20250;-87
2023/04/21 02:56:52;;;;;;;14.10;12.67;;;10.00;64.80;;;;;;6262163;28;20237;-84
2023/04/21 02:59:56;;;;;;;18.53;13.17;;;10.10;64.50;;;;;;6259115;28;20249;-88
2023/04/21 03:02:59;;;;;;;13.80;12.07;;;10.00;64.80;;;;;;6235797;28;20312;-89
2023/04/21 03:06:04;;;;;;;14.00;12.60;;;10.00;64.70;;;;;;6248495;28;20314;-86
2023/04/21 03:09:09;;;;;;;16.20;12.80;;;10.00;64.90;;;;;;6260735;28;20376;-84
2023/04/21 03:12:12;;;;;;;14.93;13.33;;;10.00;64.60;;;;;;6254388;28;20246;-86
2023/04/21 03:15:16;;;;;;;14.13;12.73;;;10.00;64.60;;;;;;6256753;28;20230;-89
2023/04/21 03:18:19;;;;;;;15.10;13.37;;;9.90;64.70;;;;;;6248867;28;20231;-89
2023/04/21 03:21:22;;;;;;;14.43;13.03;;;9.80;64.70;;;;;;6246853;28;20241;-87
2023/04/21 03:24:27;;;;;;;15.63;12.97;;;9.80;64.80;;;;;;6260480;28;20230;-88
2023/04/21 03:27:30;;;;;;;14.37;12.97;;;9.80;64.90;;;;;;6254379;28;20230;-89
2023/04/21 03:30:33;;;;;;;15.47;13.70;;;9.80;64.80;;;;;;6282360;28;20815;-83
2023/04/21 03:33:36;;;;;;;16.23;13.70;;;9.70;65.10;;;;;;6246071;28;20241;-80
2023/04/21 03:36:39;;;;;;;14.07;12.87;;;9.70;65.10;;;;;;6248534;28;20733;-82
2023/04/21 03:39:44;;;;;;;13.90;12.70;;;9.60;65.10;;;;;;6258312;28;20352;-82
2023/04/21 03:42:48;;;;;;;15.00;13.60;;;9.50;65.40;;;;;;6264567;28;20745;-80
2023/04/21 03:45:52;;;;;;;15.83;13.57;;;9.50;65.20;;;;;;6255630;28;20234;-82
2023/04/21 03:48:55;;;;;;;14.50;13.20;;;9.50;65.40;;;;;;6252691;28;20438;-82
2023/04/21 03:51:58;;;;;;;14.33;12.97;;;9.40;65.40;;;;;;6255906;28;20234;-81
2023/04/21 03:55:03;;;;;;;15.40;13.90;;;9.40;65.50;;;;;;6250662;28;20826;-84
2023/04/21 03:58:07;;;;;;;14.23;13.03;;;9.40;65.60;;;;;;6265256;28;20246;-81
2023/04/21 04:01:10;;;;;;;15.07;13.73;;;9.40;65.70;;;;;;6253261;28;20237;-82
2023/04/21 04:04:13;;;;;;;15.30;13.87;;;9.40;65.50;;;;;;6257578;28;20233;-82
2023/04/21 04:07:17;;;;;;;16.53;13.27;;;9.40;65.40;;;;;;6256286;28;20350;-83
2023/04/21 04:10:21;;;;;;;15.33;13.77;;;9.40;65.50;;;;;;6266765;28;20242;-81
2023/04/21 04:13:25;;;;;;;15.43;13.83;;;9.40;65.60;;;;;;6271724;28;20296;-82
2023/04/21 04:16:28;;;;;;;16.30;14.10;;;9.30;65.60;;;;;;6241697;28;20252;-84
2023/04/21 04:19:32;;;;;;;15.00;13.47;;;9.30;65.60;;;;;;6241470;28;20230;-81
2023/04/21 04:22:35;;;;;;;15.50;13.57;;;9.30;65.70;;;;;;6267114;28;20238;-82
2023/04/21 04:25:41;;;;;;;15.90;14.23;;;9.30;65.80;;;;;;6283915;28;20319;-81
2023/04/21 04:28:44;;;;;;;18.40;13.90;;;9.30;65.60;;;;;;6264454;28;20242;-83
2023/04/21 04:31:48;;;;;;;15.83;14.43;;;9.40;65.60;;;;;;6255076;28;20271;-80
2023/04/21 04:34:51;;;;;;;14.90;13.50;;;9.30;65.50;;;;;;6258150;28;20277;-80
2023/04/21 04:37:55;;;;;;;17.07;14.13;;;9.30;65.60;;;;;;6246887;28;20238;-81
2023/04/21 04:41:01;;;;;;;14.97;13.57;;;9.30;65.80;;;;;;6242175;28;20261;-81
2023/04/21 04:44:04;;;;;;;16.17;14.73;;;9.30;65.90;;;;;;6235369;28;20250;-81
2023/04/21 04:47:07;;;;;;;16.70;15.13;;;9.40;65.40;;;;;;6238105;28;20741;-83
2023/04/21 04:50:11;;;;;;;15.47;13.90;;;9.40;65.20;;;;;;6242326;28;20272;-82
2023/04/21 04:53:14;;;;;;;15.50;14.03;;;9.40;65.30;;;;;;6255634;28;20234;-82
2023/04/21 04:56:18;;;;;;;16.27;14.73;;;9.40;65.50;;;;;;6261829;28;20247;-79
2023/04/21 04:59:21;;;;;;;15.70;14.07;;;9.40;65.30;;;;;;6259621;28;20666;-82
2023/04/21 05:02:24;;;;;;;15.20;13.47;;;9.40;65.10;;;;;;6255943;28;20249;-81
2023/04/21 05:05:28;;;;;;;15.90;14.47;;;9.50;65.10;;;;;;6267434;28;20230;-83
2023/04/21 05:08:31;;;;;;;17.20;14.17;;;9.50;65.20;;;;;;6261251;28;20242;-81
2023/04/21 05:11:35;;;;;;;16.13;14.53;;;9.50;64.80;;;;;;6262037;28;20238;-81
2023/04/21 05:14:38;;;;;;;15.80;13.53;;;9.60;64.60;;;;;;6272315;28;20233;-81
2023/04/21 05:17:41;;;;;;;14.80;13.57;;;9.60;64.60;;;;;;6259573;28;20739;-81
2023/04/21 05:20:45;;;;;;;14.93;13.57;;;9.70;64.40;;;;;;6235753;28;20234;-80
2023/04/21 05:23:48;;;;;;;16.23;14.20;;;9.70;64.30;;;;;;6239569;28;20268;-80
2023/04/21 05:26:52;;;;;;;14.37;13.17;;;9.80;64.30;;;;;;6236735;28;20241;-80
2023/04/21 05:29:56;;;;;;;13.97;12.67;;;9.90;64.10;;;;;;6233228;28;20236;-80
2023/04/21 05:32:59;;;;;;;16.13;14.60;;;9.90;64.00;;;;;;6232038;28;20248;-80
2023/04/21 05:36:02;;;;;;;15.53;14.20;;;10.00;63.70;;;;;;6236089;28;20231;-79
2023/04/21 05:39:05;;;;;;;16.00;14.30;;;10.10;63.60;;;;;;6260358;28;20612;-79
2023/04/21 05:42:11;;;;;;;19.90;14.93;;;10.10;63.30;;;;;;6236601;28;20250;-80
2023/04/21 05:45:14;;;;;;;15.23;13.67;;;10.20;63.30;;;;;;6250364;28;20237;-81
2023/04/21 05:48:17;;;;;;;15.83;13.83;;;10.30;62.90;;;;;;6251155;28;20249;-79
2023/04/21 05:51:21;;;;;;;15.20;13.80;;;10.50;62.50;;;;;;6249807;28;20237;-82
2023/04/21 05:54:24;;;;;;;15.43;14.03;;;10.60;62.60;;;;;;6254221;28;20284;-82
2023/04/21 05:57:29;;;;;;;14.97;13.57;;;10.80;62.20;;;;;;6258114;28;20313;-80
2023/04/21 06:00:32;;;;;;;14.83;13.37;;;10.90;61.70;;;;;;6256385;28;20267;-86
2023/04/21 06:03:35;;;;;;;15.43;13.93;;;11.10;61.80;;;;;;6254091;28;20265;-81
2023/04/21 06:06:38;;;;;;;14.10;12.90;;;11.30;61.00;;;;;;6264375;28;21216;-83
2023/04/21 06:09:42;;;;;;;15.40;13.77;;;11.50;60.50;;;;;;6254707;28;20673;-80
2023/04/21 06:12:46;;;;;;;17.53;13.63;;;11.80;59.60;;;;;;6249463;28;20828;-80
2023/04/21 06:15:49;;;;;;;15.67;13.07;;;12.00;59.20;;;;;;6270856;28;20242;-81
2023/04/21 06:18:54;;;;;;;14.37;12.93;;;12.20;58.60;;;;;;6270626;28;20234;-78
2023/04/21 06:21:58;;;;;;;14.07;12.77;;;12.50;58.30;;;;;;6245631;28;20239;-81
2023/04/21 06:25:01;;;;;;;14.93;13.43;;;12.80;57.60;;;;;;6254849;28;20242;-81
2023/04/21 06:28:05;;;;;;;13.60;12.40;;;13.00;57.20;;;;;;6267164;28;20308;-80
2023/04/21 06:31:14;;;;;;;14.83;13.50;;;13.20;56.50;;;;;;6250077;28;20324;-78
2023/04/21 06:34:19;;;;;;;13.27;12.00;;;13.30;56.40;;;;;;6255553;28;20367;-82
2023/04/21 06:37:22;;;;;;;14.67;13.30;;;13.40;56.20;;;;;;6262714;28;20237;-80
2023/04/21 06:40:26;;;;;;;14.20;12.80;;;13.50;56.10;;;;;;6259598;28;20324;-82
2023/04/21 06:43:30;;;;;;;14.80;11.63;;;13.60;55.50;;;;;;6268379;28;20236;-82
2023/04/21 06:46:33;;;;;;;14.23;12.77;;;13.80;55.50;;;;;;6236492;28;20608;-78
2023/04/21 06:49:37;;;;;;;14.30;13.00;;;13.80;55.10;;;;;;6265127;28;20234;-80
2023/04/21 06:52:40;;;;;;;14.87;13.33;;;13.70;55.00;;;;;;6266649;28;20261;-81
2023/04/21 06:55:43;;;;;;;12.73;11.63;;;13.80;54.70;;;;;;6283194;28;20244;-79
2023/04/21 06:58:47;;;;;;;14.33;13.03;;;13.90;55.00;;;;;;6291058;28;20251;-79
2023/04/21 07:01:51;;;;;;;13.23;11.87;;;13.90;54.60;;;;;;6277846;28;20248;-80
2023/04/21 07:04:54;;;;;;;13.57;12.20;;;14.00;54.50;;;;;;6265515;28;20240;-80
2023/04/21 07:07:58;;;;;;;13.83;12.63;;;14.10;54.50;;;;;;6254268;28;20382;-80
2023/04/21 07:11:01;;;;;;;13.83;12.60;;;14.20;53.80;;;;;;6248850;28;20702;-83
2023/04/21 07:14:06;;;;;;;13.90;12.50;;;14.20;54.00;;;;;;6244418;28;20284;-78
2023/04/21 07:17:09;;;;;;;15.50;13.10;;;14.30;54.00;;;;;;6239281;28;20436;-80
2023/04/21 07:20:13;;;;;;;14.57;13.10;;;14.40;53.70;;;;;;6249608;28;20664;-79
2023/04/21 07:23:16;;;;;;;13.70;12.33;;;14.50;54.60;;;;;;6262653;28;20237;-78
2023/04/21 07:26:21;;;;;;;13.20;11.90;;;14.60;53.90;;;;;;6253994;28;20276;-81
2023/04/21 07:29:25;;;;;;;14.80;12.23;;;14.70;53.70;;;;;;6259006;28;20299;-82
2023/04/21 07:32:28;;;;;;;14.60;12.10;;;14.80;53.30;;;;;;6264629;28;20284;-81
2023/04/21 07:35:31;;;;;;;16.50;12.40;;;14.90;53.30;;;;;;6268142;28;20230;-78
2023/04/21 07:38:34;;;;;;;12.80;11.57;;;14.90;52.70;;;;;;6265716;28;20230;-83
2023/04/21 07:41:37;;;;;;;14.40;13.00;;;15.00;52.90;;;;;;6271348;28;20237;-80
2023/04/21 07:44:42;;;;;;;13.63;11.97;;;15.00;52.40;;;;;;6266417;28;20248;-80
2023/04/21 07:47:45;;;;;;;13.70;12.47;;;15.00;52.80;;;;;;6267667;28;20230;-80
2023/04/21 07:50:50;;;;;;;13.43;12.40;;;15.10;52.80;;;;;;6271514;28;20229;-81
2023/04/21 07:53:53;;;;;;;13.53;12.20;;;15.20;52.30;;;;;;6274266;28;20717;-81
2023/04/21 07:56:56;;;;;;;12.97;11.70;;;15.40;52.20;;;;;;6270735;28;20249;-81
2023/04/21 08:00:00;;;;;;;16.77;12.57;;;15.50;52.50;;;;;;6264280;28;20671;-80
2023/04/21 08:03:03;;;;;;;12.77;11.67;;;15.60;52.10;;;;;;6268082;28;20241;-79
2023/04/21 08:06:07;;;;;;;12.97;11.73;;;15.80;51.90;;;;;;6265450;28;20729;-81
2023/04/21 08:09:11;;;;;;;13.43;12.20;;;15.90;51.50;;;;;;6252226;28;20276;-80
2023/04/21 08:12:14;;;;;;;13.93;12.73;;;16.00;50.80;;;;;;6268594;28;20237;-82
2023/04/21 08:15:20;;;;;;;13.33;12.20;;;15.90;50.70;;;;;;6257775;28;20648;-82
2023/04/21 08:18:23;;;;;;;13.37;12.13;;;15.90;50.80;;;;;;6269407;28;20242;-80
2023/04/21 08:21:27;;;;;;;18.10;12.17;;;15.90;50.50;;;;;;6271704;28;20321;-80
2023/04/21 08:24:33;;;;;;;12.67;11.47;;;16.00;50.50;;;;;;6272995;28;20236;-81
2023/04/21 08:27:40;;;;;;;12.53;11.33;;;16.00;50.40;;;;;;6274441;28;20230;-78
2023/04/21 08:30:45;;;;;;;12.50;11.40;;;16.20;50.30;;;;;;6263398;28;20328;-79
2023/04/21 08:33:48;;;;;;;13.17;12.17;;;16.30;50.90;;;;;;6264275;28;20229;-80
2023/04/21 08:37:04;;;;;;;13.13;12.03;;;16.40;50.70;;;;;;6259623;28;20270;-81
2023/04/21 08:40:08;;;;;;;10.77;9.80;;;16.50;50.00;;;;;;6257824;28;20305;-80
2023/04/21 08:43:12;;;;;;;11.57;10.50;;;16.70;50.50;;;;;;6270507;28;20234;-79
2023/04/21 08:46:16;;;;;;;12.53;11.33;;;16.70;49.60;;;;;;6261513;28;20389;-79
2023/04/21 08:49:21;;;;;;;11.97;10.73;;;16.80;49.50;;;;;;6265947;28;20230;-79
2023/04/21 08:52:25;;;;;;;11.57;10.40;;;16.90;50.30;;;;;;6277520;28;20241;-82
2023/04/21 08:55:30;;;;;;;15.83;11.53;;;16.90;50.30;;;;;;6261741;28;20237;-79
2023/04/21 08:58:33;;;;;;;10.93;10.13;;;17.00;49.70;;;;;;6271715;28;20766;-79
2023/04/21 09:02:08;;;;;;;14.53;10.67;;;17.00;49.40;;;;;;6266526;28;20745;-80
2023/04/21 09:05:23;;;;;;;11.67;10.43;;;17.20;49.20;;;;;;6232214;28;20387;-80
2023/04/21 09:08:28;;;;;;;11.97;10.77;;;17.30;48.90;;;;;;6254078;28;20230;-79
2023/04/21 09:11:33;;;;;;;11.77;10.63;;;17.30;49.20;;;;;;6248942;28;20241;-78
2023/04/21 09:14:36;;;;;;;11.97;10.77;;;17.20;48.50;;;;;;6256256;28;20234;-79
2023/04/21 09:17:40;;;;;;;11.77;10.67;;;17.40;48.60;;;;;;6261912;28;20768;-80
2023/04/21 09:20:44;;;;;;;13.57;11.40;;;17.50;48.20;;;;;;6257737;28;20229;-78
2023/04/21 09:23:49;;;;;;;11.30;10.30;;;17.60;48.60;;;;;;6252621;28;20242;-82
2023/04/21 09:26:52;;;;;;;11.63;10.43;;;17.70;49.20;;;;;;6260835;28;20240;-78
2023/04/21 09:30:01;;;;;;;10.50;9.60;;;17.80;49.00;;;;;;6260469;28;20230;-80
2023/04/21 09:33:07;;;;;;;13.47;10.17;;;18.00;48.00;;;;;;6260173;28;20250;-79
2023/04/21 09:36:30;;;;;;;12.47;10.03;;;18.00;48.50;;;;;;6246411;28;20781;-81
2023/04/21 09:39:34;;;;;;;11.43;10.40;;;18.10;48.70;;;;;;6242508;28;20323;-81
2023/04/21 09:42:55;;;;;;;10.93;9.57;;;18.10;47.10;;;;;;6253041;28;20306;-77
2023/04/21 09:46:00;;;;;;;12.20;10.97;;;18.30;47.40;;;;;;6237540;28;20234;-79
2023/04/21 09:49:05;;;;;;;13.63;10.50;;;18.40;47.70;;;;;;6242175;28;20238;-78
2023/04/21 09:52:11;;;;;;;10.03;9.13;;;18.40;47.50;;;;;;6247851;28;20238;-80
2023/04/21 09:55:26;;;;;;;11.10;10.10;;;18.40;47.70;;;;;;6257194;28;20244;-77
2023/04/21 09:58:34;;;;;;;12.57;10.07;;;18.40;48.20;;;;;;6256122;28;20710;-77
2023/04/21 10:01:37;;;;;;;11.23;10.23;;;18.50;47.50;;;;;;6262701;28;20234;-76
2023/04/21 10:04:43;;;;;;;10.80;9.90;;;18.50;46.90;;;;;;6258834;28;20226;-79
2023/04/21 10:07:47;;;;;;;12.00;9.50;;;18.60;47.60;;;;;;6272230;28;20225;-79
2023/04/21 10:10:51;;;;;;;9.90;9.10;;;18.80;46.60;;;;;;6259477;28;20237;-78
2023/04/21 10:13:55;;;;;;;9.70;9.00;;;18.80;46.20;;;;;;6277637;28;20237;-80
2023/04/21 10:17:03;;;;;;;10.23;9.13;;;19.00;46.90;;;;;;6271223;28;20234;-79
2023/04/21 10:20:09;;;;;;;10.13;9.23;;;19.00;45.20;;;;;;6266896;28;20784;-81
2023/04/21 10:23:29;;;;;;;10.67;9.50;;;19.00;45.30;;;;;;6269756;28;20234;-77
2023/04/21 10:26:36;;;;;;;10.30;9.03;;;18.90;45.30;;;;;;6262682;28;20617;-80
2023/04/21 10:29:39;;;;;;;9.27;8.57;;;19.10;45.30;;;;;;6275205;28;20242;-77
2023/04/21 10:33:05;;;;;;;11.10;8.90;;;19.20;44.20;;;;;;6245794;28;20241;-78
2023/04/21 10:36:14;;;;;;;10.47;9.30;;;19.30;45.40;;;;;;6252565;28;20242;-80
2023/04/21 10:39:28;;;;;;;11.63;9.37;;;19.30;44.40;;;;;;6255437;28;20608;-84
2023/04/21 10:42:35;;;;;;;10.33;9.20;;;19.30;44.50;;;;;;6261154;28;20690;-83
2023/04/21 10:45:38;;;;;;;9.47;8.70;;;19.30;44.90;;;;;;6266762;28;20740;-84
2023/04/21 10:48:41;;;;;;;11.13;9.37;;;19.40;45.40;;;;;;6251046;28;20787;-82
2023/04/21 10:52:07;;;;;;;10.07;9.17;;;19.60;45.30;;;;;;6289413;28;20281;-76
2023/04/21 10:55:11;;;;;;;9.13;8.40;;;19.70;44.20;;;;;;6291482;28;20213;-81
2023/04/21 10:58:16;;;;;;;9.73;9.03;;;19.90;44.10;;;;;;6267900;28;20253;-79
2023/04/21 11:01:19;;;;;;;9.60;8.70;;;19.90;44.60;;;;;;6277778;28;20227;-79
2023/04/21 11:04:22;;;;;;;9.90;9.10;;;19.90;44.40;;;;;;6279078;28;20264;-80
2023/04/21 11:07:28;;;;;;;10.07;8.53;;;20.00;43.90;;;;;;6272531;28;20223;-78
2023/04/21 11:10:42;;;;;;;10.07;9.20;;;20.00;44.60;;;;;;6298496;28;20425;-77
2023/04/21 11:13:46;;;;;;;10.30;9.27;;;19.90;44.10;;;;;;6302357;28;20221;-78
2023/04/21 11:16:49;;;;;;;10.47;8.77;;;20.00;44.00;;;;;;6309842;28;20313;-78
2023/04/21 11:19:54;;;;;;;9.63;8.80;;;20.10;44.20;;;;;;6296287;28;20290;-76
2023/04/21 11:22:58;;;;;;;9.73;8.90;;;20.00;44.40;;;;;;6290510;28;20382;-76
2023/04/21 11:26:01;;;;;;;9.37;8.43;;;20.00;43.50;;;;;;6280695;28;20233;-77
2023/04/21 11:29:06;;;;;;;9.33;8.53;;;20.00;43.40;;;;;;6288295;28;20275;-81
2023/04/21 11:32:09;;;;;;;9.50;8.87;;;19.90;44.10;;;;;;6276596;28;20241;-80
2023/04/21 11:35:12;;;;;;;10.37;9.37;;;20.00;44.80;;;;;;6276073;28;20241;-79
2023/04/21 11:38:17;;;;;;;9.63;9.00;;;20.00;44.80;;;;;;6266961;28;20619;-79
2023/04/21 11:41:22;;;;;;;9.93;9.13;;;20.10;44.40;;;;;;6282489;28;20249;-81
2023/04/21 11:44:33;;;;;;;9.23;8.47;;;20.30;44.60;;;;;;6280690;28;20315;-81
2023/04/21 11:47:38;;;;;;;10.90;8.50;;;20.40;44.30;;;;;;6273535;28;20245;-80
2023/04/21 11:50:47;;;;;;;13.60;8.27;;;20.50;42.80;;;;;;6279399;28;20379;-80
2023/04/21 11:53:52;;;;;;;9.43;8.47;;;20.60;42.90;;;;;;6275890;28;20254;-82
2023/04/21 11:56:55;;;;;;;11.33;9.23;;;20.70;43.40;;;;;;6247317;28;20246;-78
2023/04/21 11:59:59;;;;;;;9.73;8.93;;;20.70;43.20;;;;;;6251660;28;20716;-80
2023/04/21 12:03:02;;;;;;;9.43;8.63;;;20.80;43.50;;;;;;6246724;28;20243;-80
2023/04/21 12:06:06;;;;;;;9.60;8.67;;;20.90;43.40;;;;;;6255638;28;20226;-79
2023/04/21 12:09:17;;;;;;;8.80;8.10;;;21.00;43.40;;;;;;6255252;28;20337;-79
2023/04/21 12:12:22;;;;;;;9.23;8.43;;;21.00;42.10;;;;;;6237185;28;20373;-79
2023/04/21 12:15:25;;;;;;;9.50;8.67;;;20.90;42.70;;;;;;6241909;28;20246;-80
2023/04/21 12:18:31;;;;;;;9.17;8.43;;;20.90;43.00;;;;;;6243484;28;20601;-81
2023/04/21 12:21:38;;;;;;;9.53;8.53;;;21.00;43.10;;;;;;6253583;28;20333;-79
2023/04/21 12:24:43;;;;;;;9.97;9.07;;;21.10;42.70;;;;;;6257403;28;20231;-78
2023/04/21 12:27:50;;;;;;;8.97;8.47;;;21.10;42.20;;;;;;6281361;28;20216;-79
2023/04/21 12:30:54;;;;;;;11.03;8.70;;;21.00;42.80;;;;;;6273372;28;20238;-76
2023/04/21 12:33:57;;;;;;;9.60;8.97;;;20.90;43.00;;;;;;6287949;28;20220;-77
2023/04/21 12:37:01;;;;;;;9.97;8.93;;;20.90;43.30;;;;;;6289099;28;20229;-79
2023/04/21 12:40:06;;;;;;;8.93;8.10;;;20.90;42.70;;;;;;6297280;28;20226;-75
2023/04/21 12:43:10;;;;;;;9.10;8.50;;;20.90;43.20;;;;;;6283960;28;20218;-77
2023/04/21 12:46:13;;;;;;;8.60;7.90;;;20.70;43.50;;;;;;6295096;28;20234;-78
2023/04/21 12:49:17;;;;;;;10.50;7.40;;;20.60;43.80;;;;;;6286352;28;20469;-78
2023/04/21 12:52:20;;;;;;;7.63;7.10;;;20.80;42.90;;;;;;6286633;28;20238;-80
2023/04/21 12:55:24;;;;;;;8.13;7.63;;;20.80;42.60;;;;;;6270773;28;20249;-77
2023/04/21 12:58:27;;;;;;;7.57;7.10;;;20.80;42.90;;;;;;6262293;28;20230;-79
2023/04/21 13:01:31;;;;;;;8.07;7.47;;;20.70;42.50;;;;;;6258470;28;20242;-82
2023/04/21 13:04:35;;;;;;;7.77;7.30;;;20.70;42.90;;;;;;6269780;28;20923;-79
2023/04/21 13:07:38;;;;;;;7.63;7.00;;;20.80;43.00;;;;;;6261968;28;20230;-82
2023/04/21 13:10:44;;;;;;;8.63;7.93;;;21.00;42.70;;;;;;6257683;28;20233;-83
2023/04/21 13:13:47;;;;;;;8.07;7.33;;;21.10;42.40;;;;;;6251721;28;20236;-81
2023/04/21 13:16:50;;;;;;;7.90;7.27;;;21.20;42.00;;;;;;6268563;28;20241;-81
2023/04/21 13:19:53;;;;;;;7.73;7.23;;;21.10;41.90;;;;;;6253233;28;20234;-80
2023/04/21 13:22:57;;;;;;;7.70;7.13;;;21.00;41.50;;;;;;6259949;28;20272;-80
2023/04/21 13:26:01;;;;;;;7.53;6.93;;;20.90;41.80;;;;;;6253001;28;20851;-82
2023/04/21 13:29:04;;;;;;;7.97;7.47;;;20.80;41.80;;;;;;6266724;28;20248;-80
2023/04/21 13:32:08;;;;;;;8.00;7.40;;;20.70;42.10;;;;;;6263969;28;20244;-81
2023/04/21 13:35:11;;;;;;;9.80;8.27;;;20.70;42.70;;;;;;6266475;28;20241;-80
2023/04/21 13:38:17;;;;;;;7.53;6.93;;;20.70;42.10;;;;;;6276610;28;20237;-77
2023/04/21 13:41:22;;;;;;;7.83;7.03;;;20.70;42.00;;;;;;6257687;28;20246;-78
2023/04/21 13:44:26;;;;;;;7.50;7.00;;;20.70;42.70;;;;;;6254403;28;20730;-78
2023/04/21 13:47:30;;;;;;;7.93;7.23;;;20.70;42.30;;;;;;6262707;28;20973;-78
2023/04/21 13:50:33;;;;;;;8.17;7.67;;;20.60;42.10;;;;;;6252469;28;20265;-81
2023/04/21 13:53:36;;;;;;;7.20;6.90;;;20.50;42.20;;;;;;6258310;28;20275;-77
2023/04/21 13:56:40;;;;;;;8.73;8.23;;;20.50;42.60;;;;;;6274697;28;20445;-80
2023/04/21 13:59:44;;;;;;;8.53;7.90;;;20.50;42.50;;;;;;6259855;28;20242;-77
2023/04/21 14:02:47;;;;;;;8.00;7.47;;;20.60;42.60;;;;;;6284753;28;20248;-77
2023/04/21 14:05:51;;;;;;;10.03;7.70;;;20.70;42.50;;;;;;6260189;28;20254;-80
2023/04/21 14:08:55;;;;;;;8.30;7.50;;;20.70;41.90;;;;;;6246042;28;20262;-80
2023/04/21 14:12:00;;;;;;;8.60;8.00;;;20.60;42.90;;;;;;6237342;28;20371;-79
2023/04/21 14:15:03;;;;;;;7.80;7.20;;;20.60;42.10;;;;;;6234958;28;20471;-80
2023/04/21 14:18:07;;;;;;;7.73;7.20;;;20.60;42.00;;;;;;6237507;28;20235;-77
2023/04/21 14:21:10;;;;;;;8.17;7.57;;;20.60;42.00;;;;;;6235562;28;20238;-80
2023/04/21 14:24:13;;;;;;;7.67;7.07;;;20.50;42.70;;;;;;6244145;28;20234;-80
2023/04/21 14:27:19;;;;;;;7.60;7.00;;;20.50;42.80;;;;;;6253305;28;20330;-80
2023/04/21 14:30:22;;;;;;;7.77;7.13;;;20.50;42.10;;;;;;6246260;28;20237;-81
2023/04/21 14:33:25;;;;;;;7.30;6.83;;;20.60;42.30;;;;;;6239351;28;20238;-79
2023/04/21 14:36:28;;;;;;;6.70;6.20;;;20.90;41.60;;;;;;6237789;28;20294;-80
2023/04/21 14:39:33;;;;;;;7.40;6.90;;;21.00;42.10;;;;;;6245506;28;20725;-79
2023/04/21 14:42:38;;;;;;;8.17;7.57;;;21.00;41.70;;;;;;6260989;28;20358;-79
2023/04/21 14:45:42;;;;;;;8.77;7.93;;;20.90;41.60;;;;;;6259185;28;20308;-81
2023/04/21 14:48:46;;;;;;;7.97;7.30;;;20.90;41.30;;;;;;6268012;28;20233;-81
2023/04/21 14:51:50;;;;;;;6.83;6.27;;;20.80;41.40;;;;;;6270421;28;20830;-78
2023/04/21 14:54:53;;;;;;;7.70;7.17;;;20.80;42.00;;;;;;6274043;28;20387;-79
2023/04/21 14:57:58;;;;;;;7.77;7.27;;;20.80;41.30;;;;;;6247232;28;20243;-81
2023/04/21 15:01:01;;;;;;;7.53;7.13;;;20.70;41.50;;;;;;6251094;28;20252;-78
2023/04/21 15:04:05;;;;;;;7.40;6.77;;;20.70;41.50;;;;;;6232604;28;20231;-80
2023/04/21 15:07:08;;;;;;;8.37;7.67;;;20.70;41.80;;;;;;6256669;28;20241;-79
2023/04/21 15:10:12;;;;;;;7.77;7.27;;;20.80;41.50;;;;;;6264890;28;20265;-78
2023/04/21 15:13:17;;;;;;;7.70;7.10;;;20.80;41.60;;;;;;6251546;28;20230;-79
2023/04/21 15:16:20;;;;;;;7.50;7.10;;;20.80;41.80;;;;;;6251423;28;20410;-78
2023/04/21 15:19:23;;;;;;;7.47;6.90;;;21.10;41.20;;;;;;6264738;28;20233;-83
2023/04/21 15:22:27;;;;;;;7.27;6.77;;;21.30;41.10;;;;;;6269742;28;20251;-79
2023/04/21 15:25:31;;;;;;;6.80;6.50;;;21.10;41.20;;;;;;6273958;28;20616;-78
2023/04/21 15:28:35;;;;;;;7.57;7.00;;;21.10;41.50;;;;;;6257995;28;20730;-79
2023/04/21 15:31:39;;;;;;;7.33;6.83;;;21.00;41.00;;;;;;6248178;28;20249;-79
2023/04/21 15:34:42;;;;;;;7.40;6.67;;;20.90;41.40;;;;;;6262356;28;20785;-82
2023/04/21 15:37:45;;;;;;;7.43;6.80;;;21.00;41.50;;;;;;6265054;28;20227;-78
2023/04/21 15:40:48;;;;;;;6.53;6.03;;;21.10;41.10;;;;;;6261099;28;20237;-79
2023/04/21 15:44:05;;;;;;;7.07;6.43;;;20.90;41.90;;;;;;6262464;28;20345;-82
2023/04/21 15:47:08;;;;;;;6.53;5.90;;;20.80;41.70;;;;;;6263993;28;20234;-80